sensor_id;sensor_type;location;lat;lon;timestamp;P1;durP1;ratioP1;P2;durP2;ratioP2
66095;SDS011;53861;53.422;14.530;2023-05-15T00:02:07;13.73;;;8.95;;
66095;SDS011;53861;53.422;14.530;2023-05-15T00:04:37;13.63;;;9.07;;
66095;SDS011;53861;53.422;14.530;2023-05-15T00:07:07;14.80;;;9.10;;
66095;SDS011;53861;53.422;14.530;2023-05-15T00:09:36;14.75;;;9.35;;
66095;SDS011;53861;53.422;14.530;2023-05-15T00:12:06;16.13;;;9.35;;
66095;SDS011;53861;53.422;14.530;2023-05-15T00:14:35;16.35;;;9.48;;
66095;SDS011;53861;53.422;14.530;2023-05-15T00:17:11;16.20;;;9.80;;
66095;SDS011;53861;53.422;14.530;2023-05-15T00:19:48;15.82;;;9.52;;
66095;SDS011;53861;53.422;14.530;2023-05-15T00:22:22;14.65;;;9.35;;
66095;SDS011;53861;53.422;14.530;2023-05-15T00:24:52;15.07;;;9.48;;
66095;SDS011;53861;53.422;14.530;2023-05-15T00:27:34;14.65;;;9.50;;
66095;SDS011;53861;53.422;14.530;2023-05-15T00:30:31;17.17;;;9.27;;
66095;SDS011;53861;53.422;14.530;2023-05-15T00:33:02;19.27;;;9.52;;
66095;SDS011;53861;53.422;14.530;2023-05-15T00:35:41;14.52;;;9.30;;
66095;SDS011;53861;53.422;14.530;2023-05-15T00:38:09;16.17;;;9.10;;
66095;SDS011;53861;53.422;14.530;2023-05-15T00:40:42;25.90;;;10.27;;
66095;SDS011;53861;53.422;14.530;2023-05-15T00:43:15;13.93;;;9.07;;
66095;SDS011;53861;53.422;14.530;2023-05-15T00:45:54;15.45;;;9.20;;
66095;SDS011;53861;53.422;14.530;2023-05-15T00:48:23;14.15;;;9.20;;
66095;SDS011;53861;53.422;14.530;2023-05-15T00:50:56;16.63;;;9.77;;
66095;SDS011;53861;53.422;14.530;2023-05-15T00:53:27;17.23;;;9.57;;
66095;SDS011;53861;53.422;14.530;2023-05-15T00:55:57;16.58;;;9.68;;
66095;SDS011;53861;53.422;14.530;2023-05-15T00:58:27;14.50;;;9.48;;
66095;SDS011;53861;53.422;14.530;2023-05-15T01:01:08;18.00;;;9.38;;
66095;SDS011;53861;53.422;14.530;2023-05-15T01:03:48;15.82;;;9.55;;
66095;SDS011;53861;53.422;14.530;2023-05-15T01:06:25;16.15;;;10.00;;
66095;SDS011;53861;53.422;14.530;2023-05-15T01:08:53;17.02;;;10.27;;
66095;SDS011;53861;53.422;14.530;2023-05-15T01:11:32;15.77;;;9.70;;
66095;SDS011;53861;53.422;14.530;2023-05-15T01:14:06;17.73;;;10.73;;
66095;SDS011;53861;53.422;14.530;2023-05-15T01:16:39;20.02;;;10.57;;
66095;SDS011;53861;53.422;14.530;2023-05-15T01:19:08;17.20;;;10.20;;
66095;SDS011;53861;53.422;14.530;2023-05-15T01:22:16;17.50;;;10.02;;
66095;SDS011;53861;53.422;14.530;2023-05-15T01:28:10;17.33;;;9.73;;
66095;SDS011;53861;53.422;14.530;2023-05-15T01:30:48;15.70;;;10.32;;
66095;SDS011;53861;53.422;14.530;2023-05-15T01:33:39;17.98;;;10.40;;
66095;SDS011;53861;53.422;14.530;2023-05-15T01:36:17;20.85;;;10.48;;
66095;SDS011;53861;53.422;14.530;2023-05-15T01:38:49;17.33;;;10.68;;
66095;SDS011;53861;53.422;14.530;2023-05-15T01:41:48;25.33;;;10.73;;
66095;SDS011;53861;53.422;14.530;2023-05-15T01:44:28;16.65;;;10.73;;
66095;SDS011;53861;53.422;14.530;2023-05-15T01:47:05;21.00;;;10.75;;
66095;SDS011;53861;53.422;14.530;2023-05-15T01:49:53;19.33;;;11.07;;
66095;SDS011;53861;53.422;14.530;2023-05-15T01:52:37;16.92;;;10.68;;
66095;SDS011;53861;53.422;14.530;2023-05-15T01:55:12;19.50;;;10.68;;
66095;SDS011;53861;53.422;14.530;2023-05-15T02:00:51;15.87;;;10.60;;
66095;SDS011;53861;53.422;14.530;2023-05-15T02:03:22;21.48;;;11.35;;
66095;SDS011;53861;53.422;14.530;2023-05-15T02:06:01;18.23;;;11.13;;
66095;SDS011;53861;53.422;14.530;2023-05-15T02:11:18;22.45;;;11.07;;
66095;SDS011;53861;53.422;14.530;2023-05-15T02:13:56;21.33;;;11.38;;
66095;SDS011;53861;53.422;14.530;2023-05-15T02:16:31;21.98;;;11.07;;
66095;SDS011;53861;53.422;14.530;2023-05-15T02:19:00;21.90;;;11.73;;
66095;SDS011;53861;53.422;14.530;2023-05-15T02:21:36;20.35;;;11.00;;
66095;SDS011;53861;53.422;14.530;2023-05-15T02:24:03;17.17;;;11.05;;
66095;SDS011;53861;53.422;14.530;2023-05-15T02:26:42;18.42;;;11.13;;
66095;SDS011;53861;53.422;14.530;2023-05-15T02:29:18;22.00;;;11.18;;
66095;SDS011;53861;53.422;14.530;2023-05-15T02:31:54;21.38;;;11.35;;
66095;SDS011;53861;53.422;14.530;2023-05-15T02:34:27;21.77;;;11.23;;
66095;SDS011;53861;53.422;14.530;2023-05-15T02:37:06;17.08;;;10.65;;
66095;SDS011;53861;53.422;14.530;2023-05-15T02:39:51;19.55;;;11.10;;
66095;SDS011;53861;53.422;14.530;2023-05-15T02:44:58;17.10;;;10.25;;
66095;SDS011;53861;53.422;14.530;2023-05-15T02:47:34;24.02;;;10.93;;
66095;SDS011;53861;53.422;14.530;2023-05-15T02:50:08;20.23;;;11.10;;
66095;SDS011;53861;53.422;14.530;2023-05-15T02:52:52;18.63;;;11.07;;
66095;SDS011;53861;53.422;14.530;2023-05-15T02:55:42;22.98;;;11.48;;
66095;SDS011;53861;53.422;14.530;2023-05-15T02:58:16;18.95;;;10.95;;
66095;SDS011;53861;53.422;14.530;2023-05-15T03:00:52;24.05;;;11.73;;
66095;SDS011;53861;53.422;14.530;2023-05-15T03:03:23;19.60;;;11.25;;
66095;SDS011;53861;53.422;14.530;2023-05-15T03:05:56;19.58;;;11.15;;
66095;SDS011;53861;53.422;14.530;2023-05-15T03:08:26;19.75;;;11.73;;
66095;SDS011;53861;53.422;14.530;2023-05-15T03:10:56;20.08;;;12.18;;
66095;SDS011;53861;53.422;14.530;2023-05-15T03:13:26;23.23;;;13.37;;
66095;SDS011;53861;53.422;14.530;2023-05-15T03:15:57;24.35;;;12.07;;
66095;SDS011;53861;53.422;14.530;2023-05-15T03:18:27;25.75;;;13.35;;
66095;SDS011;53861;53.422;14.530;2023-05-15T03:20:59;21.75;;;13.20;;
66095;SDS011;53861;53.422;14.530;2023-05-15T03:23:31;28.95;;;13.52;;
66095;SDS011;53861;53.422;14.530;2023-05-15T03:26:18;21.85;;;13.50;;
66095;SDS011;53861;53.422;14.530;2023-05-15T03:28:48;25.05;;;14.10;;
66095;SDS011;53861;53.422;14.530;2023-05-15T03:31:21;21.77;;;12.93;;
66095;SDS011;53861;53.422;14.530;2023-05-15T03:33:52;22.08;;;12.85;;
66095;SDS011;53861;53.422;14.530;2023-05-15T03:36:30;22.52;;;13.73;;
66095;SDS011;53861;53.422;14.530;2023-05-15T03:39:15;23.08;;;13.27;;
66095;SDS011;53861;53.422;14.530;2023-05-15T03:41:45;26.52;;;13.00;;
66095;SDS011;53861;53.422;14.530;2023-05-15T03:46:57;27.70;;;13.50;;
66095;SDS011;53861;53.422;14.530;2023-05-15T03:49:28;25.33;;;13.45;;
66095;SDS011;53861;53.422;14.530;2023-05-15T03:52:02;26.75;;;13.57;;
66095;SDS011;53861;53.422;14.530;2023-05-15T03:54:33;22.83;;;12.73;;
66095;SDS011;53861;53.422;14.530;2023-05-15T04:01:46;27.77;;;13.32;;
66095;SDS011;53861;53.422;14.530;2023-05-15T04:04:11;29.52;;;13.38;;
66095;SDS011;53861;53.422;14.530;2023-05-15T04:06:43;22.73;;;12.82;;
66095;SDS011;53861;53.422;14.530;2023-05-15T04:09:13;26.30;;;12.23;;
66095;SDS011;53861;53.422;14.530;2023-05-15T04:12:03;31.20;;;13.50;;
66095;SDS011;53861;53.422;14.530;2023-05-15T04:15:42;23.60;;;12.48;;
66095;SDS011;53861;53.422;14.530;2023-05-15T04:17:56;27.42;;;13.80;;
66095;SDS011;53861;53.422;14.530;2023-05-15T04:20:37;29.52;;;13.95;;
66095;SDS011;53861;53.422;14.530;2023-05-15T04:23:08;27.33;;;12.93;;
66095;SDS011;53861;53.422;14.530;2023-05-15T04:25:37;26.85;;;13.10;;
66095;SDS011;53861;53.422;14.530;2023-05-15T04:28:11;28.98;;;13.35;;
66095;SDS011;53861;53.422;14.530;2023-05-15T04:30:43;25.40;;;14.43;;
66095;SDS011;53861;53.422;14.530;2023-05-15T04:33:52;27.15;;;13.38;;
66095;SDS011;53861;53.422;14.530;2023-05-15T04:36:10;27.13;;;13.98;;
66095;SDS011;53861;53.422;14.530;2023-05-15T04:38:39;24.90;;;14.00;;
66095;SDS011;53861;53.422;14.530;2023-05-15T04:41:17;32.70;;;15.48;;
66095;SDS011;53861;53.422;14.530;2023-05-15T04:43:48;26.92;;;14.82;;
66095;SDS011;53861;53.422;14.530;2023-05-15T04:46:15;27.27;;;14.45;;
66095;SDS011;53861;53.422;14.530;2023-05-15T04:49:00;27.40;;;14.40;;
66095;SDS011;53861;53.422;14.530;2023-05-15T04:51:31;31.17;;;14.48;;
66095;SDS011;53861;53.422;14.530;2023-05-15T04:54:03;27.27;;;14.20;;
66095;SDS011;53861;53.422;14.530;2023-05-15T04:56:36;26.55;;;14.20;;
66095;SDS011;53861;53.422;14.530;2023-05-15T04:59:04;27.38;;;13.82;;
66095;SDS011;53861;53.422;14.530;2023-05-15T05:01:38;20.23;;;13.52;;
66095;SDS011;53861;53.422;14.530;2023-05-15T05:04:13;25.63;;;14.50;;
66095;SDS011;53861;53.422;14.530;2023-05-15T05:06:45;24.08;;;13.43;;
66095;SDS011;53861;53.422;14.530;2023-05-15T05:09:17;25.52;;;13.38;;
66095;SDS011;53861;53.422;14.530;2023-05-15T05:11:57;28.75;;;13.93;;
66095;SDS011;53861;53.422;14.530;2023-05-15T05:14:33;23.38;;;13.02;;
66095;SDS011;53861;53.422;14.530;2023-05-15T05:17:08;20.65;;;12.88;;
66095;SDS011;53861;53.422;14.530;2023-05-15T05:19:37;24.48;;;12.50;;
66095;SDS011;53861;53.422;14.530;2023-05-15T05:22:11;20.80;;;12.88;;
66095;SDS011;53861;53.422;14.530;2023-05-15T05:24:43;21.58;;;13.68;;
66095;SDS011;53861;53.422;14.530;2023-05-15T05:27:13;25.05;;;14.55;;
66095;SDS011;53861;53.422;14.530;2023-05-15T05:29:42;24.90;;;13.35;;
66095;SDS011;53861;53.422;14.530;2023-05-15T05:32:15;23.90;;;14.02;;
66095;SDS011;53861;53.422;14.530;2023-05-15T05:34:43;27.58;;;14.90;;
66095;SDS011;53861;53.422;14.530;2023-05-15T05:37:10;28.85;;;13.60;;
66095;SDS011;53861;53.422;14.530;2023-05-15T05:39:37;24.85;;;14.10;;
66095;SDS011;53861;53.422;14.530;2023-05-15T05:42:06;31.83;;;14.00;;
66095;SDS011;53861;53.422;14.530;2023-05-15T05:44:33;20.30;;;12.85;;
66095;SDS011;53861;53.422;14.530;2023-05-15T05:47:00;34.60;;;14.38;;
66095;SDS011;53861;53.422;14.530;2023-05-15T05:49:28;34.17;;;13.45;;
66095;SDS011;53861;53.422;14.530;2023-05-15T05:51:55;25.45;;;13.35;;
66095;SDS011;53861;53.422;14.530;2023-05-15T05:54:22;26.70;;;12.48;;
66095;SDS011;53861;53.422;14.530;2023-05-15T05:56:50;24.33;;;12.77;;
66095;SDS011;53861;53.422;14.530;2023-05-15T05:59:18;24.15;;;13.40;;
66095;SDS011;53861;53.422;14.530;2023-05-15T06:01:46;27.13;;;12.55;;
66095;SDS011;53861;53.422;14.530;2023-05-15T06:04:15;26.80;;;12.55;;
66095;SDS011;53861;53.422;14.530;2023-05-15T06:06:42;31.65;;;13.00;;
66095;SDS011;53861;53.422;14.530;2023-05-15T06:09:09;23.73;;;11.77;;
66095;SDS011;53861;53.422;14.530;2023-05-15T06:11:37;22.88;;;12.23;;
66095;SDS011;53861;53.422;14.530;2023-05-15T06:14:04;22.90;;;12.40;;
66095;SDS011;53861;53.422;14.530;2023-05-15T06:16:34;18.98;;;12.80;;
66095;SDS011;53861;53.422;14.530;2023-05-15T06:19:04;22.23;;;13.48;;
66095;SDS011;53861;53.422;14.530;2023-05-15T06:21:31;24.52;;;13.70;;
66095;SDS011;53861;53.422;14.530;2023-05-15T06:24:02;25.30;;;13.80;;
66095;SDS011;53861;53.422;14.530;2023-05-15T06:26:32;30.40;;;20.10;;
66095;SDS011;53861;53.422;14.530;2023-05-15T06:28:59;25.40;;;14.73;;
66095;SDS011;53861;53.422;14.530;2023-05-15T06:31:29;27.38;;;16.08;;
66095;SDS011;53861;53.422;14.530;2023-05-15T06:33:58;27.50;;;15.07;;
66095;SDS011;53861;53.422;14.530;2023-05-15T06:36:25;26.02;;;13.20;;
66095;SDS011;53861;53.422;14.530;2023-05-15T06:38:53;22.42;;;13.35;;
66095;SDS011;53861;53.422;14.530;2023-05-15T06:41:20;27.10;;;13.95;;
66095;SDS011;53861;53.422;14.530;2023-05-15T06:43:47;22.52;;;14.35;;
66095;SDS011;53861;53.422;14.530;2023-05-15T06:46:14;25.73;;;13.38;;
66095;SDS011;53861;53.422;14.530;2023-05-15T06:48:50;28.00;;;13.93;;
66095;SDS011;53861;53.422;14.530;2023-05-15T06:51:21;22.92;;;14.52;;
66095;SDS011;53861;53.422;14.530;2023-05-15T06:53:48;26.48;;;13.68;;
66095;SDS011;53861;53.422;14.530;2023-05-15T06:56:17;20.40;;;14.25;;
66095;SDS011;53861;53.422;14.530;2023-05-15T06:58:44;30.90;;;15.50;;
66095;SDS011;53861;53.422;14.530;2023-05-15T07:01:14;22.63;;;15.25;;
66095;SDS011;53861;53.422;14.530;2023-05-15T07:03:41;27.80;;;14.60;;
66095;SDS011;53861;53.422;14.530;2023-05-15T07:06:10;26.67;;;14.85;;
66095;SDS011;53861;53.422;14.530;2023-05-15T07:08:42;24.77;;;15.00;;
66095;SDS011;53861;53.422;14.530;2023-05-15T07:11:09;24.95;;;14.30;;
66095;SDS011;53861;53.422;14.530;2023-05-15T07:13:37;24.48;;;14.20;;
66095;SDS011;53861;53.422;14.530;2023-05-15T07:16:04;33.25;;;14.23;;
66095;SDS011;53861;53.422;14.530;2023-05-15T07:18:32;35.58;;;15.20;;
66095;SDS011;53861;53.422;14.530;2023-05-15T07:20:59;26.98;;;16.08;;
66095;SDS011;53861;53.422;14.530;2023-05-15T07:23:27;33.47;;;14.63;;
66095;SDS011;53861;53.422;14.530;2023-05-15T07:25:55;30.65;;;13.07;;
66095;SDS011;53861;53.422;14.530;2023-05-15T07:28:22;33.60;;;14.75;;
66095;SDS011;53861;53.422;14.530;2023-05-15T07:30:50;35.88;;;13.15;;
66095;SDS011;53861;53.422;14.530;2023-05-15T07:33:17;19.45;;;12.30;;
66095;SDS011;53861;53.422;14.530;2023-05-15T07:35:45;21.77;;;11.60;;
66095;SDS011;53861;53.422;14.530;2023-05-15T07:38:20;22.17;;;11.02;;
66095;SDS011;53861;53.422;14.530;2023-05-15T07:40:57;31.67;;;11.43;;
66095;SDS011;53861;53.422;14.530;2023-05-15T07:43:25;31.70;;;11.32;;
66095;SDS011;53861;53.422;14.530;2023-05-15T07:46:01;22.67;;;10.18;;
66095;SDS011;53861;53.422;14.530;2023-05-15T07:48:36;16.15;;;8.88;;
66095;SDS011;53861;53.422;14.530;2023-05-15T07:51:03;16.23;;;9.60;;
66095;SDS011;53861;53.422;14.530;2023-05-15T07:53:36;14.30;;;9.02;;
66095;SDS011;53861;53.422;14.530;2023-05-15T07:56:11;26.23;;;8.82;;
66095;SDS011;53861;53.422;14.530;2023-05-15T07:58:46;13.40;;;8.00;;
66095;SDS011;53861;53.422;14.530;2023-05-15T08:01:20;19.08;;;7.50;;
66095;SDS011;53861;53.422;14.530;2023-05-15T08:03:50;22.20;;;7.07;;
66095;SDS011;53861;53.422;14.530;2023-05-15T08:06:17;15.85;;;6.68;;
66095;SDS011;53861;53.422;14.530;2023-05-15T08:08:44;10.65;;;6.90;;
66095;SDS011;53861;53.422;14.530;2023-05-15T08:11:13;12.05;;;6.57;;
66095;SDS011;53861;53.422;14.530;2023-05-15T08:13:40;13.32;;;6.75;;
66095;SDS011;53861;53.422;14.530;2023-05-15T08:16:08;9.10;;;6.25;;
66095;SDS011;53861;53.422;14.530;2023-05-15T08:18:35;14.65;;;6.57;;
66095;SDS011;53861;53.422;14.530;2023-05-15T08:21:02;10.48;;;6.30;;
66095;SDS011;53861;53.422;14.530;2023-05-15T08:23:30;12.93;;;6.70;;
66095;SDS011;53861;53.422;14.530;2023-05-15T08:25:57;14.18;;;7.70;;
66095;SDS011;53861;53.422;14.530;2023-05-15T08:28:28;15.52;;;8.85;;
66095;SDS011;53861;53.422;14.530;2023-05-15T08:30:55;16.73;;;9.00;;
66095;SDS011;53861;53.422;14.530;2023-05-15T08:33:23;18.40;;;9.32;;
66095;SDS011;53861;53.422;14.530;2023-05-15T08:35:51;14.57;;;8.13;;
66095;SDS011;53861;53.422;14.530;2023-05-15T08:38:18;14.30;;;8.85;;
66095;SDS011;53861;53.422;14.530;2023-05-15T08:40:47;15.88;;;8.30;;
66095;SDS011;53861;53.422;14.530;2023-05-15T08:43:16;17.92;;;9.40;;
66095;SDS011;53861;53.422;14.530;2023-05-15T08:45:46;15.38;;;8.88;;
66095;SDS011;53861;53.422;14.530;2023-05-15T08:48:18;17.77;;;8.90;;
66095;SDS011;53861;53.422;14.530;2023-05-15T08:50:45;14.68;;;7.65;;
66095;SDS011;53861;53.422;14.530;2023-05-15T08:53:17;13.23;;;7.95;;
66095;SDS011;53861;53.422;14.530;2023-05-15T08:55:45;17.33;;;7.57;;
66095;SDS011;53861;53.422;14.530;2023-05-15T08:58:12;10.45;;;6.50;;
66095;SDS011;53861;53.422;14.530;2023-05-15T09:00:41;12.70;;;5.97;;
66095;SDS011;53861;53.422;14.530;2023-05-15T09:03:14;9.77;;;6.13;;
66095;SDS011;53861;53.422;14.530;2023-05-15T09:05:44;12.57;;;6.95;;
66095;SDS011;53861;53.422;14.530;2023-05-15T09:08:16;23.75;;;6.82;;
66095;SDS011;53861;53.422;14.530;2023-05-15T09:10:44;17.60;;;6.82;;
66095;SDS011;53861;53.422;14.530;2023-05-15T09:13:12;19.73;;;9.82;;
66095;SDS011;53861;53.422;14.530;2023-05-15T09:15:40;16.45;;;8.00;;
66095;SDS011;53861;53.422;14.530;2023-05-15T09:18:08;20.02;;;8.85;;
66095;SDS011;53861;53.422;14.530;2023-05-15T09:20:37;24.40;;;9.00;;
66095;SDS011;53861;53.422;14.530;2023-05-15T09:23:05;27.17;;;10.00;;
66095;SDS011;53861;53.422;14.530;2023-05-15T09:25:48;21.92;;;8.88;;
66095;SDS011;53861;53.422;14.530;2023-05-15T09:28:24;11.38;;;6.90;;
66095;SDS011;53861;53.422;14.530;2023-05-15T09:30:57;11.02;;;6.30;;
66095;SDS011;53861;53.422;14.530;2023-05-15T09:33:32;19.13;;;8.02;;
66095;SDS011;53861;53.422;14.530;2023-05-15T09:36:02;13.70;;;4.93;;
66095;SDS011;53861;53.422;14.530;2023-05-15T09:38:31;10.40;;;5.10;;
66095;SDS011;53861;53.422;14.530;2023-05-15T09:41:02;9.38;;;4.63;;
66095;SDS011;53861;53.422;14.530;2023-05-15T09:43:32;10.65;;;4.90;;
66095;SDS011;53861;53.422;14.530;2023-05-15T09:46:00;9.18;;;4.90;;
66095;SDS011;53861;53.422;14.530;2023-05-15T09:48:27;12.90;;;4.88;;
66095;SDS011;53861;53.422;14.530;2023-05-15T09:50:54;10.63;;;6.13;;
66095;SDS011;53861;53.422;14.530;2023-05-15T09:53:23;7.50;;;5.10;;
66095;SDS011;53861;53.422;14.530;2023-05-15T09:55:52;13.10;;;5.65;;
66095;SDS011;53861;53.422;14.530;2023-05-15T09:58:19;10.93;;;5.70;;
66095;SDS011;53861;53.422;14.530;2023-05-15T10:00:47;13.57;;;5.72;;
66095;SDS011;53861;53.422;14.530;2023-05-15T10:03:15;10.32;;;5.13;;
66095;SDS011;53861;53.422;14.530;2023-05-15T10:05:45;16.92;;;5.15;;
66095;SDS011;53861;53.422;14.530;2023-05-15T10:08:12;10.52;;;4.82;;
66095;SDS011;53861;53.422;14.530;2023-05-15T10:10:42;10.75;;;5.00;;
66095;SDS011;53861;53.422;14.530;2023-05-15T10:13:11;12.55;;;5.68;;
66095;SDS011;53861;53.422;14.530;2023-05-15T10:15:38;10.05;;;4.90;;
66095;SDS011;53861;53.422;14.530;2023-05-15T10:18:06;10.93;;;4.70;;
66095;SDS011;53861;53.422;14.530;2023-05-15T10:20:34;15.50;;;5.22;;
66095;SDS011;53861;53.422;14.530;2023-05-15T10:23:06;14.73;;;8.07;;
66095;SDS011;53861;53.422;14.530;2023-05-15T10:25:48;27.67;;;7.55;;
66095;SDS011;53861;53.422;14.530;2023-05-15T10:28:20;31.02;;;8.50;;
66095;SDS011;53861;53.422;14.530;2023-05-15T10:30:48;17.83;;;7.82;;
66095;SDS011;53861;53.422;14.530;2023-05-15T10:33:17;19.52;;;7.85;;
66095;SDS011;53861;53.422;14.530;2023-05-15T10:35:45;25.65;;;9.07;;
66095;SDS011;53861;53.422;14.530;2023-05-15T10:38:14;19.35;;;8.00;;
66095;SDS011;53861;53.422;14.530;2023-05-15T10:40:45;23.95;;;11.57;;
66095;SDS011;53861;53.422;14.530;2023-05-15T10:43:14;17.48;;;8.98;;
66095;SDS011;53861;53.422;14.530;2023-05-15T10:45:41;17.20;;;9.57;;
66095;SDS011;53861;53.422;14.530;2023-05-15T10:48:09;19.67;;;10.57;;
66095;SDS011;53861;53.422;14.530;2023-05-15T10:50:38;19.45;;;10.70;;
66095;SDS011;53861;53.422;14.530;2023-05-15T10:53:05;18.38;;;9.88;;
66095;SDS011;53861;53.422;14.530;2023-05-15T10:55:34;16.95;;;10.02;;
66095;SDS011;53861;53.422;14.530;2023-05-15T10:58:08;15.30;;;9.88;;
66095;SDS011;53861;53.422;14.530;2023-05-15T11:00:40;20.98;;;9.07;;
66095;SDS011;53861;53.422;14.530;2023-05-15T11:03:08;16.23;;;8.95;;
66095;SDS011;53861;53.422;14.530;2023-05-15T11:08:35;16.20;;;7.63;;
66095;SDS011;53861;53.422;14.530;2023-05-15T11:11:03;15.70;;;5.80;;
66095;SDS011;53861;53.422;14.530;2023-05-15T11:19:32;10.13;;;5.57;;
66095;SDS011;53861;53.422;14.530;2023-05-15T11:22:14;9.68;;;5.78;;
66095;SDS011;53861;53.422;14.530;2023-05-15T11:24:46;11.80;;;6.20;;
66095;SDS011;53861;53.422;14.530;2023-05-15T11:27:18;10.75;;;5.57;;
66095;SDS011;53861;53.422;14.530;2023-05-15T11:30:06;11.77;;;6.00;;
66095;SDS011;53861;53.422;14.530;2023-05-15T11:32:49;12.57;;;6.70;;
66095;SDS011;53861;53.422;14.530;2023-05-15T11:35:22;13.80;;;5.80;;
66095;SDS011;53861;53.422;14.530;2023-05-15T11:37:52;11.85;;;6.60;;
66095;SDS011;53861;53.422;14.530;2023-05-15T11:40:22;13.40;;;5.90;;
66095;SDS011;53861;53.422;14.530;2023-05-15T11:43:00;10.10;;;5.13;;
66095;SDS011;53861;53.422;14.530;2023-05-15T11:45:32;8.40;;;5.28;;
66095;SDS011;53861;53.422;14.530;2023-05-15T11:48:04;10.57;;;5.93;;
66095;SDS011;53861;53.422;14.530;2023-05-15T11:50:33;11.38;;;5.72;;
66095;SDS011;53861;53.422;14.530;2023-05-15T11:53:02;14.63;;;6.40;;
66095;SDS011;53861;53.422;14.530;2023-05-15T11:55:30;15.50;;;6.40;;
66095;SDS011;53861;53.422;14.530;2023-05-15T11:57:58;15.35;;;6.32;;
66095;SDS011;53861;53.422;14.530;2023-05-15T12:00:26;11.23;;;6.88;;
66095;SDS011;53861;53.422;14.530;2023-05-15T12:02:55;11.45;;;6.60;;
66095;SDS011;53861;53.422;14.530;2023-05-15T12:05:24;15.43;;;7.95;;
66095;SDS011;53861;53.422;14.530;2023-05-15T12:07:51;13.68;;;7.75;;
66095;SDS011;53861;53.422;14.530;2023-05-15T12:10:19;11.70;;;6.47;;
66095;SDS011;53861;53.422;14.530;2023-05-15T12:12:46;10.82;;;6.25;;
66095;SDS011;53861;53.422;14.530;2023-05-15T12:15:15;10.50;;;6.22;;
66095;SDS011;53861;53.422;14.530;2023-05-15T12:17:43;13.35;;;7.40;;
66095;SDS011;53861;53.422;14.530;2023-05-15T12:20:13;11.52;;;6.30;;
66095;SDS011;53861;53.422;14.530;2023-05-15T12:22:43;14.65;;;7.00;;
66095;SDS011;53861;53.422;14.530;2023-05-15T12:25:11;13.48;;;7.93;;
66095;SDS011;53861;53.422;14.530;2023-05-15T12:27:40;13.82;;;7.53;;
66095;SDS011;53861;53.422;14.530;2023-05-15T12:30:08;14.80;;;7.95;;
66095;SDS011;53861;53.422;14.530;2023-05-15T12:32:36;16.42;;;7.20;;
66095;SDS011;53861;53.422;14.530;2023-05-15T12:35:05;17.27;;;8.52;;
66095;SDS011;53861;53.422;14.530;2023-05-15T12:37:33;15.95;;;7.45;;
66095;SDS011;53861;53.422;14.530;2023-05-15T12:40:03;19.90;;;7.60;;
66095;SDS011;53861;53.422;14.530;2023-05-15T12:42:38;13.25;;;7.32;;
66095;SDS011;53861;53.422;14.530;2023-05-15T12:45:11;14.77;;;7.05;;
66095;SDS011;53861;53.422;14.530;2023-05-15T12:47:42;12.13;;;5.82;;
66095;SDS011;53861;53.422;14.530;2023-05-15T12:50:11;9.18;;;5.35;;
66095;SDS011;53861;53.422;14.530;2023-05-15T12:52:47;11.07;;;5.65;;
66095;SDS011;53861;53.422;14.530;2023-05-15T12:55:21;10.55;;;5.00;;
66095;SDS011;53861;53.422;14.530;2023-05-15T12:57:49;8.07;;;5.43;;
66095;SDS011;53861;53.422;14.530;2023-05-15T13:00:16;12.95;;;5.93;;
66095;SDS011;53861;53.422;14.530;2023-05-15T13:02:47;8.38;;;5.03;;
66095;SDS011;53861;53.422;14.530;2023-05-15T13:05:15;11.40;;;5.30;;
66095;SDS011;53861;53.422;14.530;2023-05-15T13:07:43;7.55;;;5.10;;
66095;SDS011;53861;53.422;14.530;2023-05-15T13:10:11;9.45;;;5.28;;
66095;SDS011;53861;53.422;14.530;2023-05-15T13:12:41;9.40;;;4.70;;
66095;SDS011;53861;53.422;14.530;2023-05-15T13:15:20;9.75;;;4.80;;
66095;SDS011;53861;53.422;14.530;2023-05-15T13:17:53;9.23;;;4.82;;
66095;SDS011;53861;53.422;14.530;2023-05-15T13:20:24;10.75;;;4.80;;
66095;SDS011;53861;53.422;14.530;2023-05-15T13:22:52;9.75;;;5.13;;
66095;SDS011;53861;53.422;14.530;2023-05-15T13:25:20;16.00;;;6.57;;
66095;SDS011;53861;53.422;14.530;2023-05-15T13:27:49;9.02;;;4.60;;
66095;SDS011;53861;53.422;14.530;2023-05-15T13:30:16;8.80;;;4.57;;
66095;SDS011;53861;53.422;14.530;2023-05-15T13:35:27;10.68;;;4.28;;
66095;SDS011;53861;53.422;14.530;2023-05-15T13:38:01;9.25;;;4.25;;
66095;SDS011;53861;53.422;14.530;2023-05-15T13:40:28;8.88;;;4.13;;
66095;SDS011;53861;53.422;14.530;2023-05-15T13:42:59;8.60;;;4.43;;
66095;SDS011;53861;53.422;14.530;2023-05-15T13:45:26;10.50;;;4.45;;
66095;SDS011;53861;53.422;14.530;2023-05-15T13:47:53;8.75;;;4.80;;
66095;SDS011;53861;53.422;14.530;2023-05-15T13:50:21;10.25;;;4.78;;
66095;SDS011;53861;53.422;14.530;2023-05-15T13:52:48;11.15;;;4.30;;
66095;SDS011;53861;53.422;14.530;2023-05-15T13:55:16;11.43;;;4.65;;
66095;SDS011;53861;53.422;14.530;2023-05-15T13:57:43;14.55;;;5.28;;
66095;SDS011;53861;53.422;14.530;2023-05-15T14:00:12;7.68;;;4.00;;
66095;SDS011;53861;53.422;14.530;2023-05-15T14:02:40;6.57;;;3.90;;
66095;SDS011;53861;53.422;14.530;2023-05-15T14:05:08;9.75;;;4.13;;
66095;SDS011;53861;53.422;14.530;2023-05-15T14:07:36;11.18;;;4.30;;
66095;SDS011;53861;53.422;14.530;2023-05-15T14:10:04;10.02;;;4.80;;
66095;SDS011;53861;53.422;14.530;2023-05-15T14:12:32;8.32;;;4.72;;
66095;SDS011;53861;53.422;14.530;2023-05-15T14:15:00;14.02;;;4.90;;
66095;SDS011;53861;53.422;14.530;2023-05-15T14:17:29;8.35;;;4.30;;
66095;SDS011;53861;53.422;14.530;2023-05-15T14:19:56;8.57;;;4.45;;
66095;SDS011;53861;53.422;14.530;2023-05-15T14:22:23;9.65;;;4.78;;
66095;SDS011;53861;53.422;14.530;2023-05-15T14:24:50;9.35;;;4.00;;
66095;SDS011;53861;53.422;14.530;2023-05-15T14:27:18;8.18;;;4.50;;
66095;SDS011;53861;53.422;14.530;2023-05-15T14:29:45;8.68;;;3.88;;
66095;SDS011;53861;53.422;14.530;2023-05-15T14:32:13;7.47;;;3.92;;
66095;SDS011;53861;53.422;14.530;2023-05-15T14:34:43;10.50;;;6.80;;
66095;SDS011;53861;53.422;14.530;2023-05-15T14:37:11;8.77;;;3.85;;
66095;SDS011;53861;53.422;14.530;2023-05-15T14:39:38;9.15;;;4.40;;
66095;SDS011;53861;53.422;14.530;2023-05-15T14:42:06;7.85;;;4.50;;
66095;SDS011;53861;53.422;14.530;2023-05-15T14:44:33;7.20;;;4.20;;
66095;SDS011;53861;53.422;14.530;2023-05-15T14:47:04;7.07;;;4.43;;
66095;SDS011;53861;53.422;14.530;2023-05-15T14:49:35;9.65;;;4.10;;
66095;SDS011;53861;53.422;14.530;2023-05-15T14:52:04;9.52;;;4.30;;
66095;SDS011;53861;53.422;14.530;2023-05-15T14:54:33;8.75;;;4.75;;
66095;SDS011;53861;53.422;14.530;2023-05-15T14:57:01;9.52;;;4.90;;
66095;SDS011;53861;53.422;14.530;2023-05-15T14:59:28;8.75;;;4.32;;
66095;SDS011;53861;53.422;14.530;2023-05-15T15:01:55;10.45;;;4.95;;
66095;SDS011;53861;53.422;14.530;2023-05-15T15:04:23;7.90;;;4.63;;
66095;SDS011;53861;53.422;14.530;2023-05-15T15:06:51;10.70;;;4.68;;
66095;SDS011;53861;53.422;14.530;2023-05-15T15:09:23;8.73;;;4.63;;
66095;SDS011;53861;53.422;14.530;2023-05-15T15:11:50;8.07;;;4.35;;
66095;SDS011;53861;53.422;14.530;2023-05-15T15:14:20;9.45;;;4.07;;